Time;durP1;ratioP1;P1;durP2;ratioP2;P2;SDS_P1;SDS_P2;PMS_P1;PMS_P2;Temp;Humidity;BMP_temperature;BMP_pressure;BME280_temperature;BME280_humidity;BME280_pressure;Samples;Min_cycle;Max_cycle;Signal;HPM_P1;HPM_P2
2022/05/02 00:00:22;;;;;;;5.67;4.03;;;11.00;99.90;;;;;;5074138;28;20444;-47
2022/05/02 00:02:49;;;;;;;5.40;4.50;;;11.00;99.90;;;;;;5141223;22;20573;-48
2022/05/02 00:05:16;;;;;;;4.13;3.77;;;10.80;99.90;;;;;;5094409;28;20431;-51
2022/05/02 00:07:43;;;;;;;4.60;4.20;;;10.60;99.90;;;;;;5094016;28;20436;-48
2022/05/02 00:10:11;;;;;;;4.40;4.00;;;10.60;99.90;;;;;;5093788;28;20480;-49
2022/05/02 00:12:40;;;;;;;4.83;4.33;;;10.60;99.90;;;;;;5093711;28;20509;-48
2022/05/02 00:15:08;;;;;;;3.90;3.60;;;10.60;99.90;;;;;;5094144;28;20449;-51
2022/05/02 00:20:19;;;;;;;4.37;3.93;;;10.90;99.90;;;;;;5093854;28;20419;-49
2022/05/02 00:22:46;;;;;;;5.53;3.67;;;10.90;99.90;;;;;;5093317;28;20562;-48
2022/05/02 00:25:14;;;;;;;3.77;3.40;;;10.90;99.90;;;;;;5093668;28;20465;-50
2022/05/02 00:27:43;;;;;;;3.83;3.53;;;10.90;99.90;;;;;;5093744;28;20468;-48
2022/05/02 00:30:12;;;;;;;4.90;4.10;;;11.00;99.90;;;;;;5093562;28;20526;-48
2022/05/02 00:32:40;;;;;;;3.97;3.57;;;11.00;99.90;;;;;;5093374;28;20489;-48
2022/05/02 00:35:09;;;;;;;4.63;3.43;;;11.00;99.90;;;;;;5093545;28;20500;-48
2022/05/02 00:37:36;;;;;;;4.30;3.90;;;11.00;99.90;;;;;;5093841;28;20434;-52
2022/05/02 00:40:04;;;;;;;4.20;3.80;;;10.90;99.90;;;;;;5093482;28;21009;-47
2022/05/02 00:42:31;;;;;;;4.00;3.47;;;10.70;99.90;;;;;;5093180;28;20529;-48
2022/05/02 00:44:59;;;;;;;3.83;3.17;;;10.50;99.90;;;;;;5093224;28;20683;-47
2022/05/02 00:47:27;;;;;;;4.07;3.67;;;10.50;99.90;;;;;;5092989;28;20443;-47
2022/05/02 00:49:54;;;;;;;3.60;2.90;;;10.50;99.90;;;;;;5093397;28;20804;-48
2022/05/02 00:52:21;;;;;;;4.63;3.50;;;10.50;99.90;;;;;;5092770;28;20551;-48
2022/05/02 00:54:48;;;;;;;4.13;3.20;;;10.50;99.90;;;;;;5093397;28;20439;-48
2022/05/02 00:57:17;;;;;;;3.73;3.37;;;10.60;99.90;;;;;;5093145;28;20494;-51
2022/05/02 00:59:46;;;;;;;4.33;3.67;;;10.60;99.90;;;;;;5093191;28;20494;-48
2022/05/02 01:02:16;;;;;;;4.73;4.20;;;10.70;99.90;;;;;;5092303;28;20899;-48
2022/05/02 01:04:44;;;;;;;4.33;3.60;;;10.80;99.90;;;;;;5092978;28;20443;-48
2022/05/02 01:07:10;;;;;;;4.33;3.20;;;10.80;99.90;;;;;;5092768;28;20877;-48
2022/05/02 01:09:38;;;;;;;4.27;3.87;;;10.80;99.90;;;;;;5091899;28;20442;-47
2022/05/02 01:12:08;;;;;;;5.17;4.53;;;10.60;99.90;;;;;;5093123;28;20459;-47
2022/05/02 01:14:35;;;;;;;6.90;4.33;;;10.50;99.90;;;;;;5092665;28;20525;-47
2022/05/02 01:17:03;;;;;;;5.90;4.50;;;10.40;99.90;;;;;;5092756;28;20504;-49
2022/05/02 01:19:31;;;;;;;5.40;4.90;;;10.30;99.90;;;;;;5092666;28;20447;-47
2022/05/02 01:22:00;;;;;;;5.13;4.40;;;10.30;99.90;;;;;;5092218;28;20506;-47
2022/05/02 01:24:37;;;;;;;5.23;4.63;;;10.40;99.90;;;;;;5092509;28;20440;-48
2022/05/02 01:27:05;;;;;;;6.17;5.57;;;10.40;99.90;;;;;;5092617;28;20440;-48
2022/05/02 01:29:33;;;;;;;5.40;4.80;;;10.40;99.90;;;;;;5092747;28;20931;-48
2022/05/02 01:32:02;;;;;;;5.77;5.17;;;10.40;99.90;;;;;;5092194;28;20999;-47
2022/05/02 01:34:29;;;;;;;8.80;4.97;;;10.50;99.90;;;;;;5092202;28;20508;-47
2022/05/02 01:36:56;;;;;;;5.03;4.53;;;10.60;99.90;;;;;;5092293;28;20529;-48
2022/05/02 01:39:24;;;;;;;5.87;5.37;;;10.50;99.90;;;;;;5092204;28;20985;-47
2022/05/02 01:41:51;;;;;;;5.60;5.00;;;10.50;99.90;;;;;;5092043;28;20514;-47
2022/05/02 01:44:18;;;;;;;5.60;5.10;;;10.60;99.90;;;;;;5091966;28;20535;-51
2022/05/02 01:46:45;;;;;;;5.27;4.80;;;10.70;99.90;;;;;;5092147;28;20497;-47
2022/05/02 01:49:12;;;;;;;5.63;4.90;;;10.70;99.90;;;;;;5092128;28;20444;-47
2022/05/02 01:51:40;;;;;;;5.10;4.70;;;10.50;99.90;;;;;;5092087;28;20442;-48
2022/05/02 01:54:07;;;;;;;5.83;5.33;;;10.30;99.90;;;;;;5092085;28;20442;-50
2022/05/02 01:56:36;;;;;;;5.20;4.70;;;10.30;99.90;;;;;;5092195;28;20439;-47
2022/05/02 01:59:03;;;;;;;5.10;4.70;;;10.20;99.90;;;;;;5091774;28;20775;-48
2022/05/02 02:01:31;;;;;;;5.70;5.00;;;10.10;99.90;;;;;;5091583;28;20443;-47
2022/05/02 02:03:59;;;;;;;5.60;5.10;;;10.20;99.90;;;;;;5091209;28;20476;-52
2022/05/02 02:06:26;;;;;;;5.33;4.83;;;10.40;99.90;;;;;;5091872;28;20993;-47
2022/05/02 02:08:53;;;;;;;5.33;4.77;;;10.60;99.90;;;;;;5091602;28;20439;-47
2022/05/02 02:11:20;;;;;;;6.17;5.13;;;10.70;99.90;;;;;;5091867;28;20471;-50
2022/05/02 02:13:49;;;;;;;5.20;4.80;;;10.80;99.90;;;;;;5091801;28;20493;-47
2022/05/02 02:16:17;;;;;;;5.20;4.50;;;10.80;99.90;;;;;;5091475;28;20471;-49
2022/05/02 02:18:44;;;;;;;5.30;4.80;;;10.80;99.90;;;;;;5091820;28;20457;-51
2022/05/02 02:21:12;;;;;;;4.53;4.13;;;10.70;99.90;;;;;;5090918;28;20443;-47
2022/05/02 02:23:39;;;;;;;5.63;5.03;;;10.80;99.90;;;;;;5091197;28;20474;-48
2022/05/02 02:26:07;;;;;;;5.43;4.93;;;10.80;99.90;;;;;;5091276;28;20447;-47
2022/05/02 02:28:34;;;;;;;4.67;4.27;;;10.80;99.90;;;;;;5091514;28;20454;-50
2022/05/02 02:31:03;;;;;;;8.80;5.23;;;10.70;99.90;;;;;;5091434;28;20955;-47
2022/05/02 02:33:30;;;;;;;5.83;4.90;;;10.70;99.90;;;;;;5091131;28;20494;-48
2022/05/02 02:35:59;;;;;;;5.53;5.03;;;10.80;99.90;;;;;;5091774;28;20480;-47
2022/05/02 02:38:26;;;;;;;6.30;5.70;;;10.80;99.90;;;;;;5091258;28;20447;-49
2022/05/02 02:40:53;;;;;;;4.93;4.50;;;10.80;99.90;;;;;;5091509;28;20439;-47
2022/05/02 02:43:20;;;;;;;5.87;5.30;;;10.80;99.90;;;;;;5090627;28;20521;-51
2022/05/02 02:45:47;;;;;;;5.90;5.30;;;10.90;99.90;;;;;;5091224;28;20439;-47
2022/05/02 02:48:15;;;;;;;4.60;4.20;;;11.00;99.90;;;;;;5091342;28;20471;-47
2022/05/02 02:50:42;;;;;;;5.70;5.10;;;11.10;99.90;;;;;;5091751;28;20475;-47
2022/05/02 02:53:09;;;;;;;4.83;4.30;;;11.00;99.90;;;;;;5090870;28;20452;-48
2022/05/02 02:55:36;;;;;;;5.03;4.53;;;10.90;99.90;;;;;;5091482;28;20508;-47
2022/05/02 02:58:04;;;;;;;5.50;4.40;;;10.90;99.90;;;;;;5091287;28;20873;-53
2022/05/02 03:00:31;;;;;;;5.13;4.60;;;10.70;99.90;;;;;;5091224;28;20443;-48
2022/05/02 03:02:59;;;;;;;5.83;4.97;;;10.60;99.90;;;;;;5090712;28;20518;-47
2022/05/02 03:08:12;;;;;;;5.93;5.30;;;10.30;99.90;;;;;;5091251;28;20496;-47
2022/05/02 03:10:39;;;;;;;5.83;5.30;;;10.30;99.90;;;;;;5090844;28;20490;-45
2022/05/02 03:13:06;;;;;;;8.23;5.70;;;10.30;99.90;;;;;;5090573;28;20501;-47
2022/05/02 03:15:34;;;;;;;6.07;5.47;;;10.10;99.90;;;;;;5090917;28;20504;-47
2022/05/02 03:18:01;;;;;;;5.63;5.13;;;10.10;99.90;;;;;;5091011;28;20827;-48
2022/05/02 03:20:29;;;;;;;7.20;6.20;;;10.10;99.90;;;;;;5091168;28;20474;-47
2022/05/02 03:22:56;;;;;;;6.80;6.13;;;10.10;99.90;;;;;;5090859;28;20903;-47
2022/05/02 03:25:23;;;;;;;8.40;7.40;;;10.00;99.90;;;;;;5091201;28;20443;-47
2022/05/02 03:27:50;;;;;;;6.80;6.10;;;10.00;99.90;;;;;;5090706;28;20526;-47
2022/05/02 03:30:17;;;;;;;7.77;5.83;;;9.90;99.90;;;;;;5090617;28;20492;-50
2022/05/02 03:32:44;;;;;;;7.17;6.23;;;9.90;99.90;;;;;;5091167;28;20988;-47
2022/05/02 03:35:11;;;;;;;9.97;7.00;;;9.90;99.90;;;;;;5094760;28;20435;-47
2022/05/02 03:37:39;;;;;;;7.00;6.30;;;9.90;99.90;;;;;;5094588;28;20472;-48
2022/05/02 03:40:08;;;;;;;8.47;7.57;;;9.80;99.90;;;;;;5094443;28;20454;-49
2022/05/02 03:42:35;;;;;;;10.40;7.80;;;9.70;99.90;;;;;;5094089;28;20465;-47
2022/05/02 03:45:01;;;;;;;9.27;7.30;;;9.70;99.90;;;;;;5094505;28;20885;-47
2022/05/02 03:47:28;;;;;;;9.37;8.13;;;9.70;99.90;;;;;;5094619;28;20490;-47
2022/05/02 03:49:55;;;;;;;13.03;9.20;;;9.70;99.90;;;;;;5094713;28;20482;-47
2022/05/02 03:52:22;;;;;;;15.17;10.63;;;9.50;99.90;;;;;;5094057;28;20975;-52
2022/05/02 03:54:50;;;;;;;9.77;8.87;;;9.60;99.90;;;;;;5094231;28;20436;-48
2022/05/02 03:57:17;;;;;;;15.33;10.07;;;9.60;99.90;;;;;;5093734;28;20467;-47
2022/05/02 03:59:45;;;;;;;12.60;9.10;;;9.50;99.90;;;;;;5094112;28;20490;-47
2022/05/02 04:02:12;;;;;;;11.40;9.47;;;9.50;99.90;;;;;;5093775;28;20905;-47
2022/05/02 04:04:39;;;;;;;9.70;8.70;;;9.50;99.90;;;;;;5093986;28;20518;-52
2022/05/02 04:07:06;;;;;;;16.30;11.07;;;9.50;99.90;;;;;;5094218;28;20471;-47
2022/05/02 04:09:33;;;;;;;17.60;10.30;;;9.60;99.90;;;;;;5094524;28;20443;-50
2022/05/02 04:12:02;;;;;;;14.93;10.83;;;9.50;99.90;;;;;;5094168;28;20509;-48
2022/05/02 04:14:29;;;;;;;9.93;8.97;;;9.60;99.90;;;;;;5094008;28;20444;-47
2022/05/02 04:16:56;;;;;;;12.30;11.00;;;9.50;99.90;;;;;;5093970;28;20471;-50
2022/05/02 04:19:23;;;;;;;12.53;10.53;;;9.40;99.90;;;;;;5093678;28;20463;-47
2022/05/02 04:21:50;;;;;;;11.30;9.57;;;9.40;99.90;;;;;;5093885;28;20549;-47
2022/05/02 04:24:17;;;;;;;12.70;10.80;;;9.30;99.90;;;;;;5093560;28;20894;-49
2022/05/02 04:26:44;;;;;;;12.13;10.93;;;9.30;99.90;;;;;;5094034;28;20447;-47
2022/05/02 04:29:12;;;;;;;11.83;10.53;;;9.30;99.90;;;;;;5093680;28;20470;-47
2022/05/02 04:31:39;;;;;;;11.53;10.43;;;9.30;99.90;;;;;;5093414;28;20477;-47
2022/05/02 04:34:06;;;;;;;11.97;10.80;;;9.30;99.90;;;;;;5093351;28;20438;-48
2022/05/02 04:36:33;;;;;;;12.80;11.17;;;9.20;99.90;;;;;;5093801;28;20488;-50
2022/05/02 04:39:00;;;;;;;15.10;11.67;;;9.10;99.90;;;;;;5093577;28;20487;-49
2022/05/02 04:41:27;;;;;;;12.17;10.37;;;9.20;99.90;;;;;;5093348;28;20846;-47
2022/05/02 04:43:55;;;;;;;12.53;11.30;;;9.10;99.90;;;;;;5092658;28;20471;-50
2022/05/02 04:46:23;;;;;;;11.97;10.73;;;9.00;99.90;;;;;;5093354;28;20440;-47
2022/05/02 04:48:50;;;;;;;11.47;10.30;;;8.90;99.90;;;;;;5093297;28;20497;-48
2022/05/02 04:51:17;;;;;;;12.77;10.47;;;8.80;99.90;;;;;;5093107;28;20483;-47
2022/05/02 04:53:44;;;;;;;12.20;11.07;;;9.00;99.90;;;;;;5093040;28;20491;-52
2022/05/02 04:56:12;;;;;;;11.83;10.63;;;8.90;99.90;;;;;;5093266;28;20447;-48
2022/05/02 04:58:39;;;;;;;11.80;10.60;;;8.80;99.90;;;;;;5093231;28;20471;-50
2022/05/02 05:01:06;;;;;;;12.00;10.70;;;8.90;99.90;;;;;;5092748;28;20807;-47
2022/05/02 05:03:36;;;;;;;11.87;10.70;;;9.00;99.90;;;;;;5092653;28;20475;-47
2022/05/02 05:06:03;;;;;;;11.13;10.03;;;9.00;99.90;;;;;;5093258;28;20788;-46
2022/05/02 05:08:30;;;;;;;13.87;11.50;;;9.10;99.90;;;;;;5093002;28;20467;-47
2022/05/02 05:11:10;;;;;;;12.57;11.37;;;9.10;99.90;;;;;;5092838;28;20518;-49
2022/05/02 05:13:44;;;;;;;12.57;11.30;;;9.10;99.90;;;;;;5092224;28;20459;-47
2022/05/02 05:16:37;;;;;;;12.13;10.90;;;9.10;99.90;;;;;;5092997;28;20443;-47
2022/05/02 05:19:16;;;;;;;12.70;10.50;;;9.00;99.90;;;;;;5092897;28;20811;-47
2022/05/02 05:21:55;;;;;;;10.60;9.50;;;9.00;99.90;;;;;;5092730;28;20966;-47
2022/05/02 05:25:03;;;;;;;15.43;11.00;;;9.10;99.90;;;;;;5092224;28;21010;-47
2022/05/02 05:28:13;;;;;;;11.63;10.50;;;9.20;99.90;;;;;;5092764;28;20648;-47
2022/05/02 05:30:45;;;;;;;14.60;11.70;;;9.30;99.90;;;;;;5092634;28;20443;-48
2022/05/02 05:33:23;;;;;;;15.10;12.50;;;9.10;99.90;;;;;;5092423;28;20546;-47
2022/05/02 05:36:02;;;;;;;17.70;11.40;;;9.20;99.90;;;;;;5092413;28;20486;-47
2022/05/02 05:38:39;;;;;;;13.20;10.83;;;9.30;99.90;;;;;;5092257;28;20989;-48
2022/05/02 05:41:22;;;;;;;13.80;11.20;;;9.40;99.90;;;;;;5092282;28;20469;-47
2022/05/02 05:43:59;;;;;;;13.00;10.30;;;9.40;99.90;;;;;;5091862;28;20562;-47
2022/05/02 05:46:51;;;;;;;11.90;10.20;;;9.50;99.90;;;;;;5092040;28;20439;-47
2022/05/02 05:49:29;;;;;;;12.63;10.73;;;9.40;99.90;;;;;;5092389;28;20497;-47
2022/05/02 05:52:09;;;;;;;13.90;11.43;;;9.30;99.90;;;;;;5092060;28;20466;-50
2022/05/02 05:54:44;;;;;;;17.43;14.77;;;9.40;99.90;;;;;;5091994;28;20519;-50
2022/05/02 05:57:24;;;;;;;12.77;11.53;;;9.40;99.90;;;;;;5091191;28;20927;-47
2022/05/02 06:00:06;;;;;;;12.67;10.63;;;9.30;99.90;;;;;;5092179;28;20471;-47
2022/05/02 06:02:45;;;;;;;14.20;11.80;;;9.40;99.90;;;;;;5147566;22;20522;-48
2022/05/02 06:05:14;;;;;;;14.10;11.77;;;9.40;99.90;;;;;;5071750;28;20476;-45
2022/05/02 06:07:44;;;;;;;13.73;12.03;;;9.50;99.90;;;;;;5071404;28;20518;-45
2022/05/02 06:10:11;;;;;;;13.33;12.00;;;9.50;99.90;;;;;;5071874;28;20444;-49
2022/05/02 06:12:40;;;;;;;13.00;11.63;;;9.50;99.90;;;;;;5071383;28;20492;-45
2022/05/02 06:20:43;;;;;;;13.30;12.00;;;9.40;99.90;;;;;;5071542;28;20554;-45
2022/05/02 06:23:13;;;;;;;14.63;11.57;;;9.50;99.90;;;;;;5070964;28;20462;-48
2022/05/02 06:25:42;;;;;;;14.87;11.67;;;9.40;99.90;;;;;;5071678;28;20559;-49
2022/05/02 06:28:09;;;;;;;16.10;12.43;;;9.50;99.90;;;;;;5071204;28;20447;-45
2022/05/02 06:30:39;;;;;;;17.27;12.20;;;9.50;99.90;;;;;;5071092;28;21016;-48
2022/05/02 06:33:11;;;;;;;11.83;10.60;;;9.50;99.90;;;;;;5071080;28;20513;-50
2022/05/02 06:35:51;;;;;;;18.60;16.67;;;9.60;99.90;;;;;;5071123;28;20436;-43
2022/05/02 06:38:28;;;;;;;20.67;12.37;;;9.50;99.90;;;;;;5070273;28;20479;-49
2022/05/02 06:41:08;;;;;;;21.60;12.33;;;9.50;99.90;;;;;;5069824;28;20603;-48
2022/05/02 06:43:44;;;;;;;15.40;13.17;;;9.60;99.90;;;;;;5070907;28;20462;-46
2022/05/02 06:46:19;;;;;;;14.93;11.07;;;9.60;99.90;;;;;;5071068;28;20441;-45
2022/05/02 06:48:50;;;;;;;16.13;11.90;;;9.70;99.90;;;;;;5071004;28;20506;-48
2022/05/02 06:51:22;;;;;;;12.30;10.93;;;9.70;99.90;;;;;;5071049;28;20454;-46
2022/05/02 06:54:30;;;;;;;11.73;9.90;;;9.80;99.90;;;;;;5070169;28;20980;-44
2022/05/02 06:57:03;;;;;;;21.67;13.27;;;9.70;99.90;;;;;;5070968;28;20465;-46
2022/05/02 06:59:38;;;;;;;23.40;21.03;;;9.70;99.90;;;;;;5069484;28;20983;-49
2022/05/02 07:02:17;;;;;;;14.13;11.03;;;9.60;99.90;;;;;;5070129;28;20518;-47
2022/05/02 07:04:50;;;;;;;11.40;10.30;;;9.80;99.90;;;;;;5070992;28;21008;-50
2022/05/02 07:07:35;;;;;;;11.70;10.50;;;9.60;99.90;;;;;;5071907;28;20530;-46
2022/05/02 07:10:05;;;;;;;11.50;10.30;;;9.60;99.90;;;;;;5074782;28;20472;-45
2022/05/02 07:12:35;;;;;;;11.97;10.77;;;9.70;99.90;;;;;;5074251;28;20987;-45
2022/05/02 07:15:09;;;;;;;14.73;11.70;;;9.70;99.90;;;;;;5074670;28;20886;-45
2022/05/02 07:17:58;;;;;;;10.53;9.00;;;9.90;99.90;;;;;;5074550;28;20506;-45
2022/05/02 07:20:32;;;;;;;11.40;10.20;;;10.00;99.90;;;;;;5065078;28;20444;-46
2022/05/02 07:23:16;;;;;;;14.47;11.10;;;10.00;99.90;;;;;;5074408;28;20494;-45
2022/05/02 07:25:49;;;;;;;14.30;12.90;;;10.10;99.90;;;;;;5074350;28;20551;-43
2022/05/02 07:28:26;;;;;;;32.77;25.57;;;10.20;99.90;;;;;;5074085;28;20527;-51
2022/05/02 07:30:57;;;;;;;17.23;11.13;;;10.30;99.90;;;;;;5073030;28;20447;-45
2022/05/02 07:33:30;;;;;;;21.43;11.03;;;10.40;99.90;;;;;;5074025;28;20802;-42
2022/05/02 07:35:58;;;;;;;12.00;9.50;;;10.40;99.90;;;;;;5074219;28;20446;-50
2022/05/02 07:38:29;;;;;;;10.63;8.40;;;10.30;99.90;;;;;;5074179;28;20497;-47
2022/05/02 07:43:49;;;;;;;10.27;9.20;;;10.30;99.90;;;;;;5073339;28;20967;-46
2022/05/02 07:46:20;;;;;;;15.23;13.20;;;10.30;99.90;;;;;;5073909;28;20483;-45
2022/05/02 07:48:49;;;;;;;10.30;8.67;;;10.50;99.90;;;;;;5084583;28;20869;-43
2022/05/02 07:51:16;;;;;;;12.03;9.07;;;10.50;99.90;;;;;;5094206;28;20534;-50
2022/05/02 07:53:44;;;;;;;26.80;12.13;;;10.60;99.90;;;;;;5093806;28;20498;-45
2022/05/02 07:56:14;;;;;;;19.27;11.43;;;10.70;99.90;;;;;;5094252;28;20478;-47
2022/05/02 07:58:42;;;;;;;9.73;8.27;;;10.80;99.90;;;;;;5094564;28;20446;-46
2022/05/02 08:01:09;;;;;;;9.23;8.33;;;10.80;99.90;;;;;;5093672;28;20450;-45
2022/05/02 08:03:36;;;;;;;7.73;6.83;;;10.90;99.90;;;;;;5093462;28;20710;-45
2022/05/02 08:06:15;;;;;;;8.07;7.30;;;11.00;99.90;;;;;;5093666;28;20569;-47
2022/05/02 08:08:53;;;;;;;8.37;7.40;;;10.90;99.90;;;;;;5093361;28;20789;-45
2022/05/02 08:11:27;;;;;;;8.03;7.23;;;11.00;99.90;;;;;;5093793;28;20466;-45
2022/05/02 08:14:03;;;;;;;8.37;7.43;;;11.10;99.90;;;;;;5093817;28;20462;-45
2022/05/02 08:16:35;;;;;;;8.50;7.00;;;11.10;99.90;;;;;;5093941;28;20488;-45
2022/05/02 08:19:15;;;;;;;9.07;7.10;;;11.20;99.90;;;;;;5092887;28;20530;-46
2022/05/02 08:21:46;;;;;;;8.27;6.70;;;11.20;99.90;;;;;;5094034;28;20470;-45
2022/05/02 08:27:26;;;;;;;8.83;6.80;;;11.40;99.90;;;;;;5052205;28;20423;-44
2022/05/02 08:30:07;;;;;;;7.97;7.20;;;11.30;99.90;;;;;;5093356;28;20488;-45
2022/05/02 08:32:44;;;;;;;8.50;7.70;;;11.20;99.90;;;;;;5093248;28;20467;-48
2022/05/02 08:35:14;;;;;;;10.73;7.10;;;11.40;99.90;;;;;;5093685;28;20488;-46
2022/05/02 08:37:57;;;;;;;81.57;14.07;;;11.70;99.90;;;;;;5093557;28;20432;-44
2022/05/02 08:40:43;;;;;;;7.50;6.70;;;11.80;99.90;;;;;;5093465;28;20463;-47
2022/05/02 08:43:59;;;;;;;7.27;6.57;;;11.90;99.90;;;;;;5092968;28;20499;-46
2022/05/02 08:46:52;;;;;;;6.90;6.27;;;12.00;99.90;;;;;;5093158;28;20559;-45
2022/05/02 08:50:02;;;;;;;22.00;19.70;;;12.10;99.90;;;;;;5093651;28;20493;-46
2022/05/02 08:53:02;;;;;;;7.37;6.67;;;12.00;99.90;;;;;;5064319;28;20983;-45
2022/05/02 08:55:45;;;;;;;6.87;5.83;;;12.30;99.90;;;;;;5040193;28;20536;-45
2022/05/02 08:58:52;;;;;;;7.30;6.60;;;12.50;99.90;;;;;;5092970;28;20475;-45
2022/05/02 09:01:52;;;;;;;5.43;4.90;;;12.70;99.90;;;;;;5093152;28;20781;-45
2022/05/02 09:04:47;;;;;;;6.73;5.50;;;12.90;99.90;;;;;;5058087;28;20897;-47
2022/05/02 09:07:47;;;;;;;45.20;11.07;;;13.00;99.90;;;;;;5092654;28;20494;-45
2022/05/02 09:10:19;;;;;;;5.60;5.10;;;13.30;99.90;;;;;;5091884;28;20600;-48
2022/05/02 09:13:07;;;;;;;4.53;4.13;;;13.50;99.90;;;;;;5091257;28;20490;-44
2022/05/02 09:16:13;;;;;;;5.50;5.00;;;13.70;99.90;;;;;;5071138;28;20502;-47
2022/05/02 09:19:02;;;;;;;7.87;5.30;;;14.00;99.90;;;;;;5071730;28;20614;-45
2022/05/02 09:21:41;;;;;;;27.43;7.00;;;14.10;99.90;;;;;;5072509;28;20477;-45
2022/05/02 09:24:55;;;;;;;49.93;12.40;;;14.20;99.90;;;;;;5072260;28;20499;-44
2022/05/02 09:27:37;;;;;;;4.70;4.30;;;14.10;99.90;;;;;;5056787;28;20977;-46
2022/05/02 09:30:36;;;;;;;3.83;3.43;;;14.00;99.90;;;;;;5071621;28;20448;-50
2022/05/02 09:33:31;;;;;;;5.80;5.20;;;14.00;99.90;;;;;;5071878;28;20464;-45
2022/05/02 09:36:05;;;;;;;3.60;3.30;;;14.00;99.90;;;;;;5070256;28;20531;-45
2022/05/02 09:38:48;;;;;;;15.80;6.87;;;14.10;99.90;;;;;;5071967;28;20484;-47
2022/05/02 09:41:33;;;;;;;3.83;3.53;;;14.30;99.90;;;;;;5070989;28;20448;-49
2022/05/02 09:50:17;;;;;;;4.60;3.43;;;13.70;99.90;;;;;;5071917;28;20549;-47
2022/05/02 09:53:02;;;;;;;7.40;4.63;;;13.50;99.90;;;;;;5072371;28;20464;-50
2022/05/02 09:58:35;;;;;;;8.27;4.80;;;13.50;99.90;;;;;;5071920;28;20790;-48
2022/05/02 10:01:07;;;;;;;8.37;3.70;;;13.50;99.90;;;;;;5072093;28;20444;-46
2022/05/02 10:03:37;;;;;;;14.63;4.60;;;13.50;99.90;;;;;;5071182;28;20551;-51
2022/05/02 10:06:09;;;;;;;4.00;3.60;;;13.70;99.90;;;;;;5072205;28;20476;-42
2022/05/02 10:08:49;;;;;;;6.33;4.50;;;14.00;99.90;;;;;;5071746;28;20977;-46
2022/05/02 10:11:40;;;;;;;6.50;4.17;;;14.00;99.90;;;;;;5071371;28;20436;-47
2022/05/02 10:14:30;;;;;;;4.40;3.80;;;14.10;99.90;;;;;;5065747;28;20464;-47
2022/05/02 10:17:05;;;;;;;4.60;4.20;;;14.00;99.90;;;;;;5071642;28;20436;-48
2022/05/02 10:19:55;;;;;;;3.40;3.10;;;13.90;99.90;;;;;;5071330;28;20467;-46
2022/05/02 10:22:31;;;;;;;3.73;3.43;;;14.20;99.90;;;;;;5071426;28;20498;-46
2022/05/02 10:25:08;;;;;;;3.73;3.40;;;14.70;99.90;;;;;;5071674;28;20790;-48
2022/05/02 10:27:42;;;;;;;4.33;3.97;;;14.50;99.90;;;;;;5071087;28;20467;-46
2022/05/02 10:30:12;;;;;;;4.07;3.53;;;14.10;99.90;;;;;;5071357;28;20476;-46
2022/05/02 10:32:56;;;;;;;5.50;3.63;;;14.10;99.90;;;;;;5070569;28;20452;-47
2022/05/02 10:35:24;;;;;;;5.40;3.10;;;14.10;99.90;;;;;;5068358;28;20941;-46
2022/05/02 10:37:59;;;;;;;3.77;2.80;;;14.20;99.90;;;;;;5071342;28;20472;-46
2022/05/02 10:40:33;;;;;;;3.03;2.73;;;14.10;99.90;;;;;;5071304;28;20431;-47
2022/05/02 10:43:05;;;;;;;4.90;2.40;;;14.00;99.90;;;;;;5070551;28;20490;-46
2022/05/02 10:45:35;;;;;;;2.97;2.30;;;14.20;99.90;;;;;;5070951;28;20468;-46
2022/05/02 10:48:15;;;;;;;4.07;2.67;;;14.50;99.90;;;;;;5070489;28;20827;-47
2022/05/02 10:50:57;;;;;;;4.17;3.40;;;14.60;99.90;;;;;;5070554;28;20445;-49
2022/05/02 10:53:52;;;;;;;4.10;2.47;;;14.80;99.90;;;;;;5070125;28;20456;-51
2022/05/02 10:56:22;;;;;;;2.27;1.60;;;14.90;99.90;;;;;;5064935;28;20475;-46
2022/05/02 10:58:50;;;;;;;3.90;2.10;;;14.70;99.90;;;;;;5070462;28;20464;-46
2022/05/02 11:01:40;;;;;;;3.93;2.10;;;14.70;99.90;;;;;;5070260;28;20837;-45
2022/05/02 11:04:21;;;;;;;6.83;2.43;;;14.80;99.90;;;;;;5070391;28;20507;-45
2022/05/02 11:06:58;;;;;;;6.67;3.03;;;15.00;99.90;;;;;;5070648;28;20561;-45
2022/05/02 11:09:40;;;;;;;2.97;2.30;;;15.20;99.90;;;;;;5071009;28;20937;-45
2022/05/02 11:12:12;;;;;;;222.20;30.57;;;15.30;99.90;;;;;;5070752;28;20531;-43
2022/05/02 11:14:51;;;;;;;11.00;4.83;;;15.60;99.90;;;;;;5070758;28;20444;-45
2022/05/02 11:17:27;;;;;;;2.83;2.53;;;16.00;99.90;;;;;;5071171;28;20432;-45
2022/05/02 11:23:24;;;;;;;5.07;2.50;;;16.30;99.90;;;;;;5070687;28;20521;-45
2022/05/02 11:25:59;;;;;;;3.07;2.30;;;16.40;99.90;;;;;;5070889;28;20475;-45
2022/05/02 11:28:37;;;;;;;84.23;10.10;;;16.30;99.90;;;;;;5070691;28;20447;-49
2022/05/02 11:31:14;;;;;;;34.10;7.37;;;16.40;99.90;;;;;;5070293;28;20531;-46
2022/05/02 11:33:45;;;;;;;8.43;4.37;;;16.60;99.90;;;;;;5069777;28;21016;-46
2022/05/02 11:36:14;;;;;;;7.57;2.60;;;16.70;99.90;;;;;;5070451;28;20971;-45
2022/05/02 11:38:52;;;;;;;2.30;1.93;;;16.70;99.90;;;;;;5069341;28;20468;-47
2022/05/02 11:41:22;;;;;;;4.77;3.60;;;16.70;99.90;;;;;;5069643;28;20536;-50
2022/05/02 11:43:51;;;;;;;4.87;3.30;;;16.70;99.90;;;;;;5068920;28;20468;-46
2022/05/02 11:46:22;;;;;;;10.70;4.70;;;16.60;99.90;;;;;;5069049;28;20854;-45
2022/05/02 11:49:23;;;;;;;27.60;7.80;;;16.60;99.90;;;;;;5069212;28;20862;-51
2022/05/02 11:51:51;;;;;;;3.33;2.63;;;16.80;99.90;;;;;;5069450;28;20531;-47
2022/05/02 11:54:34;;;;;;;2.37;2.17;;;16.80;99.90;;;;;;5070609;28;20468;-45
2022/05/02 11:57:14;;;;;;;2.20;1.80;;;16.90;99.90;;;;;;5074249;28;20436;-44
2022/05/02 11:59:50;;;;;;;2.33;2.13;;;16.80;99.90;;;;;;5054175;28;20445;-45
2022/05/02 12:02:42;;;;;;;1.47;1.37;;;16.70;99.90;;;;;;5052183;28;20486;-48
2022/05/02 12:05:21;;;;;;;19.80;4.30;;;16.70;98.80;;;;;;5053048;28;20445;-45
2022/05/02 12:07:52;;;;;;;3.67;2.43;;;16.60;99.90;;;;;;5053967;28;20437;-42
2022/05/02 12:10:20;;;;;;;4.50;2.17;;;16.60;99.30;;;;;;5053440;28;20488;-46
2022/05/02 12:12:53;;;;;;;2.20;1.70;;;16.40;98.50;;;;;;5053271;28;20516;-47
2022/05/02 12:15:20;;;;;;;22.57;7.63;;;16.40;99.70;;;;;;5052882;28;20445;-44
2022/05/02 12:17:54;;;;;;;22.47;6.33;;;16.60;99.90;;;;;;5053471;28;20477;-50
2022/05/02 12:20:26;;;;;;;12.83;3.83;;;16.70;99.90;;;;;;5053505;28;20541;-45
2022/05/02 12:23:00;;;;;;;5.30;2.60;;;16.90;98.90;;;;;;5053198;28;21027;-44
2022/05/02 12:25:29;;;;;;;5.10;3.47;;;17.00;99.90;;;;;;5053818;28;20445;-44
2022/05/02 12:27:58;;;;;;;3.27;1.90;;;17.10;99.90;;;;;;5053558;28;20448;-47
2022/05/02 12:30:28;;;;;;;2.70;2.10;;;17.10;99.90;;;;;;5053209;28;20442;-45
2022/05/02 12:33:02;;;;;;;5.47;4.93;;;17.30;98.80;;;;;;5052043;28;20493;-44
2022/05/02 12:35:36;;;;;;;3.17;2.13;;;17.40;99.80;;;;;;5052446;28;20985;-44
2022/05/02 12:38:13;;;;;;;2.20;2.03;;;17.70;99.90;;;;;;5052202;28;20448;-45
2022/05/02 12:40:41;;;;;;;15.63;6.37;;;18.00;99.90;;;;;;5052514;28;20482;-46
2022/05/02 12:43:12;;;;;;;2.87;2.10;;;18.20;99.90;;;;;;5052270;28;20688;-46
2022/05/02 12:45:47;;;;;;;21.67;5.43;;;18.10;99.90;;;;;;5056575;28;20497;-48
2022/05/02 12:48:23;;;;;;;7.07;3.30;;;18.00;99.90;;;;;;5052673;28;20524;-45
2022/05/02 12:50:52;;;;;;;5.23;3.50;;;17.70;99.90;;;;;;5053181;28;20440;-44
2022/05/02 12:54:09;;;;;;;2.43;2.10;;;17.60;99.90;;;;;;5054756;28;20489;-45
2022/05/02 12:56:11;;;;;;;4.57;2.20;;;17.50;98.40;;;;;;5072734;28;20424;-49
2022/05/02 13:01:41;;;;;;;3.30;2.00;;;17.40;99.90;;;;;;5072675;28;20420;-44
2022/05/02 13:04:16;;;;;;;34.97;7.07;;;17.30;98.10;;;;;;5072317;28;20463;-46
2022/05/02 13:06:44;;;;;;;4.10;2.43;;;16.90;98.60;;;;;;5072688;28;20988;-45
2022/05/02 13:09:14;;;;;;;5.70;2.37;;;17.10;99.90;;;;;;5072573;28;20447;-44
2022/05/02 13:11:42;;;;;;;2.13;1.73;;;17.20;99.90;;;;;;5073215;28;20952;-44
2022/05/02 13:14:20;;;;;;;3.03;2.00;;;17.20;99.90;;;;;;5072640;28;20469;-44
2022/05/02 13:16:49;;;;;;;21.20;3.47;;;17.10;99.80;;;;;;5072573;28;20450;-48
2022/05/02 13:19:16;;;;;;;6.10;2.97;;;17.00;99.40;;;;;;5072581;28;20567;-45
2022/05/02 13:21:55;;;;;;;4.00;2.57;;;17.10;99.90;;;;;;5072201;28;20527;-45
2022/05/02 13:24:22;;;;;;;3.50;3.07;;;17.00;99.90;;;;;;5072157;28;20897;-46
2022/05/02 13:27:14;;;;;;;4.80;4.07;;;17.10;99.90;;;;;;5072615;28;20582;-47
2022/05/02 13:30:02;;;;;;;5.20;3.60;;;17.20;99.90;;;;;;5072168;28;20444;-44
2022/05/02 13:32:33;;;;;;;5.90;3.00;;;17.20;99.90;;;;;;5071820;28;20461;-44
2022/05/02 13:35:11;;;;;;;2.60;2.40;;;17.20;99.90;;;;;;5071975;28;20948;-47
2022/05/02 13:37:56;;;;;;;6.70;2.37;;;17.20;99.90;;;;;;5072512;28;20436;-44
2022/05/02 13:40:42;;;;;;;5.90;3.93;;;17.20;99.90;;;;;;5071995;28;20464;-45
2022/05/02 13:43:18;;;;;;;4.50;2.67;;;17.30;99.90;;;;;;5071642;28;20466;-44
2022/05/02 13:45:57;;;;;;;5.97;2.30;;;17.30;99.90;;;;;;5071877;28;20444;-48
2022/05/02 13:48:31;;;;;;;3.13;2.20;;;17.20;99.90;;;;;;5071897;28;20525;-44